Time;durP1;ratioP1;P1;durP2;ratioP2;P2;SDS_P1;SDS_P2;PMS_P1;PMS_P2;Temp;Humidity;BMP_temperature;BMP_pressure;BME280_temperature;BME280_humidity;BME280_pressure;Samples;Min_cycle;Max_cycle;Signal;HPM_P1;HPM_P2
2023/03/14 00:00:35;;;;;;;7.68;2.60;;;;;;;4.55;45.01;100095.50;3167565;28;20039;-71
2023/03/14 00:02:07;;;;;;;4.30;2.22;;;;;;;5.05;45.05;100178.09;3162308;28;20039;-72
2023/03/14 00:03:39;;;;;;;4.57;1.90;;;;;;;5.04;45.19;100181.56;3170246;28;20044;-73
2023/03/14 00:05:10;;;;;;;5.70;2.22;;;;;;;5.05;45.17;100183.25;3169877;28;20049;-73
2023/03/14 00:06:42;;;;;;;4.25;1.90;;;;;;;5.06;45.16;100181.53;3162688;28;20051;-71
2023/03/14 00:08:14;;;;;;;5.32;2.35;;;;;;;5.06;45.15;100185.00;3170243;28;20043;-71
2023/03/14 00:09:45;;;;;;;3.85;2.38;;;;;;;5.08;45.33;100188.38;3170196;28;20117;-71
2023/03/14 00:11:20;;;;;;;5.30;2.13;;;;;;;4.23;45.13;100035.81;3170264;28;20052;-71
2023/03/14 00:12:52;;;;;;;6.57;1.98;;;;;;;4.78;45.12;100125.22;3161587;28;20048;-71
2023/03/14 00:14:24;;;;;;;8.25;2.25;;;;;;;5.07;45.17;100172.94;3166990;28;20101;-71
2023/03/14 00:16:02;;;;;;;4.18;1.90;;;;;;;4.93;45.20;100147.34;3168961;28;20051;-71
2023/03/14 00:17:34;;;;;;;6.88;2.35;;;;;;;4.74;45.24;100124.41;3170029;28;20486;-70
2023/03/14 00:19:06;;;;;;;4.85;2.58;;;;;;;5.04;45.08;100173.81;3170165;28;20109;-71
2023/03/14 00:20:37;;;;;;;7.00;3.95;;;;;;;4.95;45.10;100150.75;3168983;28;20054;-71
2023/03/14 00:22:09;;;;;;;5.68;2.63;;;;;;;4.93;45.25;100143.03;3165859;28;20048;-73
2023/03/14 00:23:43;;;;;;;9.38;2.85;;;;;;;4.07;45.37;100005.13;3169757;28;20055;-72
2023/03/14 00:25:15;;;;;;;10.07;3.60;;;;;;;5.01;45.32;100160.97;3168963;28;20508;-72
2023/03/14 00:26:48;;;;;;;10.25;3.95;;;;;;;4.77;45.36;100114.03;3170196;28;20427;-73
2023/03/14 00:28:20;;;;;;;;;;;;;;;4.92;45.22;100148.22;3169979;28;20043;-73
2023/03/14 00:29:51;;;;;;;12.98;4.50;;;;;;;4.60;45.60;100113.47;3170053;28;20307;-72
2023/03/14 00:31:23;;;;;;;9.35;4.30;;;;;;;4.59;45.71;100111.78;3170069;28;20044;-73
2023/03/14 00:32:55;;;;;;;8.85;4.20;;;;;;;4.79;45.81;100155.28;3169623;28;20048;-73
2023/03/14 00:34:30;;;;;;;6.80;3.10;;;;;;;4.75;45.81;100149.34;3164697;28;20044;-73
2023/03/14 00:36:03;;;;;;;9.32;3.00;;;;;;;4.71;46.02;100144.25;3167943;28;20109;-73
2023/03/14 00:37:35;;;;;;;9.13;3.72;;;;;;;4.66;46.19;100146.06;3169842;28;20572;-73
2023/03/14 00:39:07;;;;;;;7.28;2.35;;;;;;;4.43;46.06;100111.13;3169697;28;20504;-71
2023/03/14 00:40:39;;;;;;;6.32;2.72;;;;;;;4.56;46.24;100135.88;3170018;28;20101;-73
2023/03/14 00:42:12;;;;;;;8.23;3.05;;;;;;;4.53;46.23;100128.19;3169875;28;20108;-71
2023/03/14 00:43:45;;;;;;;5.80;2.70;;;;;;;3.44;45.93;99942.53;3157254;28;20562;-72
2023/03/14 00:45:17;;;;;;;7.15;3.20;;;;;;;4.52;45.92;100128.19;3169401;28;20074;-72
2023/03/14 00:46:48;;;;;;;8.95;3.08;;;;;;;4.51;45.93;100131.66;3169805;28;20047;-71
2023/03/14 00:48:20;;;;;;;8.25;3.63;;;;;;;4.49;46.06;100128.25;3169756;28;20532;-74
2023/03/14 00:49:52;;;;;;;8.13;3.00;;;;;;;4.40;46.28;100110.34;3169965;28;20055;-72
2023/03/14 00:51:23;;;;;;;10.00;3.38;;;;;;;4.46;46.24;100117.97;3162158;28;20048;-72
2023/03/14 00:52:55;;;;;;;7.40;3.03;;;;;;;4.38;46.08;100101.75;3165924;28;20412;-72
2023/03/14 00:54:27;;;;;;;7.28;3.22;;;;;;;4.47;46.21;100123.13;3169821;28;20436;-71
2023/03/14 00:56:02;;;;;;;8.48;3.28;;;;;;;4.48;46.15;100121.41;3169509;28;20052;-71
2023/03/14 00:57:36;;;;;;;6.68;3.33;;;;;;;4.46;46.35;100123.13;3169609;28;20045;-69
2023/03/14 00:59:07;;;;;;;7.53;3.05;;;;;;;4.43;46.18;100118.88;3169676;28;20047;-70
2023/03/14 01:00:39;;;;;;;8.88;3.47;;;;;;;3.38;46.33;99952.03;3167264;28;20504;-70
2023/03/14 01:02:11;;;;;;;7.53;3.33;;;;;;;4.33;46.16;100097.53;3161704;28;20712;-70
2023/03/14 01:03:41;;;;;;;9.32;3.10;;;;;;;4.43;46.35;100108.56;3169618;28;20047;-71
2023/03/14 01:05:13;;;;;;;10.05;3.17;;;;;;;4.33;46.36;100089.81;3169395;28;20169;-70
2023/03/14 01:06:45;;;;;;;7.47;3.72;;;;;;;4.39;46.37;100098.31;3161510;28;20044;-70
2023/03/14 01:08:17;;;;;;;7.10;3.60;;;;;;;4.40;46.52;100097.44;3169206;28;20069;-70
2023/03/14 01:09:51;;;;;;;7.38;4.05;;;;;;;4.40;46.57;100098.28;3169402;28;20055;-71
2023/03/14 01:11:25;;;;;;;6.97;3.08;;;;;;;4.31;46.51;100085.53;3168953;28;20044;-71
2023/03/14 01:12:57;;;;;;;10.13;3.70;;;;;;;4.38;46.54;100101.75;3169250;28;20078;-71
2023/03/14 01:14:29;;;;;;;10.10;3.47;;;;;;;4.23;46.66;100074.47;3169501;28;20503;-71
2023/03/14 01:16:04;;;;;;;9.63;3.55;;;;;;;4.35;46.80;100092.38;3157597;28;20059;-72
2023/03/14 01:17:37;;;;;;;8.23;3.45;;;;;;;4.05;46.79;100042.09;3168277;28;20055;-71
2023/03/14 01:19:10;;;;;;;;;;;;;;;4.28;46.47;100086.44;3170067;28;20099;-70
2023/03/14 01:20:41;;;;;;;6.95;3.08;;;;;;;4.01;46.52;100035.31;3167723;28;19973;-71
2023/03/14 01:22:13;;;;;;;9.68;3.42;;;;;;;4.26;46.63;100088.19;3166345;28;20050;-71
2023/03/14 01:23:45;;;;;;;8.10;3.80;;;;;;;4.20;46.66;100075.41;3169045;28;20417;-71
2023/03/14 01:25:18;;;;;;;7.68;3.90;;;;;;;3.59;46.67;99975.78;3169224;28;20080;-71
2023/03/14 01:26:50;;;;;;;10.27;3.35;;;;;;;4.24;46.80;100078.78;3169028;28;20430;-71
2023/03/14 01:28:23;;;;;;;11.07;3.80;;;;;;;4.06;46.77;100051.56;3167556;28;20047;-73
2023/03/14 01:29:55;;;;;;;9.25;3.80;;;;;;;3.69;46.80;99990.22;3169845;28;20055;-71
2023/03/14 01:31:28;;;;;;;7.70;3.92;;;;;;;4.19;47.04;100076.25;3169488;28;20056;-72
2023/03/14 01:33:00;;;;;;;14.20;3.88;;;;;;;4.18;47.08;100081.44;3169611;28;20044;-72
2023/03/14 01:34:32;;;;;;;10.32;3.67;;;;;;;4.09;47.34;100065.25;3169232;28;20047;-71
2023/03/14 01:36:03;;;;;;;9.75;4.18;;;;;;;4.18;47.21;100079.72;3167715;28;20044;-72
2023/03/14 01:37:35;;;;;;;9.07;3.95;;;;;;;3.88;47.16;100034.63;3169410;28;20043;-72
2023/03/14 01:39:08;;;;;;;8.85;3.67;;;;;;;4.04;47.20;100058.44;3168566;28;20052;-70
2023/03/14 01:40:44;;;;;;;11.13;4.32;;;;;;;4.10;47.27;100071.25;3168833;28;20489;-72
2023/03/14 01:42:16;;;;;;;10.80;3.72;;;;;;;4.16;47.42;100076.31;3169324;28;20130;-72
2023/03/14 01:43:49;;;;;;;10.27;4.40;;;;;;;3.25;47.60;99935.03;3169620;28;20051;-72
2023/03/14 01:45:39;;;;;;;;;;;;;;;4.08;47.30;100081.59;3157202;28;20055;-70
2023/03/14 01:47:11;;;;;;;11.23;4.63;;;;;;;4.05;47.67;100073.03;3158004;28;19979;-70
2023/03/14 01:48:47;;;;;;;10.25;4.53;;;;;;;4.07;47.58;100071.28;3169299;28;20442;-70
2023/03/14 01:50:19;;;;;;;13.05;5.47;;;;;;;4.08;47.86;100070.41;3169441;28;20051;-70
2023/03/14 01:51:56;;;;;;;13.30;5.57;;;;;;;4.09;47.64;100072.13;3157757;28;20052;-70
2023/03/14 01:53:29;;;;;;;12.40;5.55;;;;;;;4.08;47.56;100076.44;3156758;28;20102;-72
2023/03/14 01:55:06;;;;;;;13.07;5.05;;;;;;;4.09;47.56;100072.13;3169164;28;20206;-71
2023/03/14 01:56:39;;;;;;;12.00;6.15;;;;;;;4.07;47.67;100069.56;3169343;28;20055;-70
2023/03/14 01:58:11;;;;;;;14.43;5.93;;;;;;;4.06;47.73;100064.44;3169079;28;20055;-71
2023/03/14 01:59:49;;;;;;;15.70;6.32;;;;;;;4.05;47.68;100066.16;3169542;28;20103;-71
2023/03/14 02:01:23;;;;;;;11.95;5.72;;;;;;;4.01;47.77;100064.50;3160488;28;20437;-71
2023/03/14 02:02:59;;;;;;;12.95;6.28;;;;;;;4.04;47.70;100068.75;3167746;28;20480;-71
2023/03/14 02:04:35;;;;;;;12.60;6.03;;;;;;;3.85;47.84;100037.25;3168882;28;20112;-70
2023/03/14 02:06:08;;;;;;;14.00;6.43;;;;;;;4.00;47.79;100064.53;3164059;28;20482;-70
2023/03/14 02:07:46;;;;;;;13.88;6.97;;;;;;;3.44;48.05;99971.72;3165975;28;20044;-70
2023/03/14 02:09:18;;;;;;;12.43;5.80;;;;;;;3.94;48.05;100064.63;3166443;28;20048;-71
2023/03/14 02:10:51;;;;;;;14.18;5.72;;;;;;;3.90;48.11;100062.94;3169033;28;20437;-71
2023/03/14 02:12:22;;;;;;;10.25;5.85;;;;;;;3.66;48.18;100021.19;3168810;28;20073;-71
2023/03/14 02:13:54;;;;;;;13.00;6.25;;;;;;;3.88;48.30;100062.97;3168791;28;20133;-70
2023/03/14 02:15:27;;;;;;;13.80;5.70;;;;;;;3.79;48.15;100056.22;3169575;28;20101;-70
2023/03/14 02:16:58;;;;;;;11.57;5.72;;;;;;;3.84;48.24;100067.28;3169091;28;20043;-72
2023/03/14 02:18:30;;;;;;;13.63;6.85;;;;;;;3.84;48.08;100061.28;3169045;28;20044;-74
2023/03/14 02:20:31;;;;;;;17.63;5.90;;;;;;;3.53;48.15;100001.63;3169154;28;20048;-70
2023/03/14 02:22:09;;;;;;;11.38;5.22;;;;;;;3.83;48.10;100052.72;3163580;28;20497;-71
2023/03/14 02:23:47;;;;;;;15.38;6.22;;;;;;;3.84;48.27;100044.09;3165034;28;20059;-71
2023/03/14 02:25:27;;;;;;;17.10;5.90;;;;;;;3.84;48.11;100049.25;3164950;28;20047;-70
2023/03/14 02:27:05;;;;;;;12.32;5.82;;;;;;;3.85;48.24;100048.41;3169092;28;20051;-71
2023/03/14 02:28:37;;;;;;;17.25;6.20;;;;;;;3.82;48.38;100047.59;3169200;28;20583;-70
2023/03/14 02:30:13;;;;;;;11.88;5.78;;;;;;;3.58;48.39;100015.28;3169401;28;20051;-71
2023/03/14 02:31:45;;;;;;;13.73;5.60;;;;;;;3.74;48.57;100044.28;3169087;28;20043;-72
2023/03/14 02:33:19;;;;;;;17.63;6.40;;;;;;;3.81;48.30;100062.19;3169136;28;20149;-70
2023/03/14 02:34:55;;;;;;;12.63;5.18;;;;;;;3.81;48.41;100049.31;3169011;28;20043;-72
2023/03/14 02:36:27;;;;;;;15.13;6.00;;;;;;;3.73;48.49;100043.44;3168387;28;20504;-72
2023/03/14 02:38:06;;;;;;;13.57;5.07;;;;;;;3.79;48.43;100061.38;3168673;28;20043;-71
2023/03/14 02:39:44;;;;;;;11.85;5.40;;;;;;;3.78;48.45;100062.22;3168876;28;20751;-70
2023/03/14 02:41:17;;;;;;;11.13;5.00;;;;;;;3.69;48.46;100036.59;3169093;28;20059;-71
2023/03/14 02:42:50;;;;;;;11.80;5.25;;;;;;;3.71;48.30;100040.00;3168934;28;20051;-71
2023/03/14 02:44:22;;;;;;;10.60;5.90;;;;;;;3.75;48.36;100048.53;3169172;28;20040;-71
2023/03/14 02:45:54;;;;;;;12.85;5.80;;;;;;;3.73;48.48;100050.31;3168880;28;20055;-70
2023/03/14 02:47:30;;;;;;;14.93;6.28;;;;;;;3.73;48.46;100052.88;3168806;28;21188;-72
2023/03/14 02:49:06;;;;;;;14.95;5.60;;;;;;;3.68;48.43;100050.34;3171674;28;20059;-71
2023/03/14 02:50:37;;;;;;;11.02;5.40;;;;;;;3.73;48.43;100061.47;3170208;28;20063;-70
2023/03/14 02:52:09;;;;;;;11.75;5.47;;;;;;;3.57;48.67;100041.91;3161419;28;20059;-71
2023/03/14 02:53:42;;;;;;;11.07;4.68;;;;;;;3.72;48.60;100058.88;3170732;28;20759;-73
2023/03/14 02:55:14;;;;;;;12.57;5.60;;;;;;;3.71;48.55;100067.50;3171466;28;20079;-71
2023/03/14 02:56:46;;;;;;;10.73;5.28;;;;;;;3.69;48.56;100072.66;3171076;28;20047;-72
2023/03/14 02:58:20;;;;;;;10.00;4.90;;;;;;;3.64;48.68;100059.84;3170901;28;20039;-71
2023/03/14 02:59:52;;;;;;;14.73;5.75;;;;;;;3.68;48.66;100068.38;3171013;28;20077;-71
2023/03/14 03:01:24;;;;;;;12.05;5.60;;;;;;;3.69;48.76;100069.22;3162268;28;20097;-70
2023/03/14 03:02:56;;;;;;;10.90;5.10;;;;;;;3.54;48.85;100047.09;3170608;28;20055;-71
2023/03/14 03:04:28;;;;;;;15.85;5.20;;;;;;;3.61;48.60;100056.47;3169971;28;20116;-72
2023/03/14 03:06:00;;;;;;;12.27;5.72;;;;;;;3.68;48.70;100063.22;3166887;28;20051;-70
2023/03/14 03:07:32;;;;;;;9.05;4.72;;;;;;;3.67;48.84;100073.53;3168559;28;20046;-70
2023/03/14 03:09:03;;;;;;;15.68;5.38;;;;;;;3.65;48.78;100076.16;3171116;28;20051;-71
2023/03/14 03:10:35;;;;;;;8.52;4.93;;;;;;;3.58;48.89;100069.34;3170728;28;20048;-71
2023/03/14 03:12:07;;;;;;;9.57;4.93;;;;;;;3.62;49.05;100071.88;3170844;28;20052;-70
2023/03/14 03:13:41;;;;;;;10.07;5.13;;;;;;;3.61;49.08;100077.91;3170418;28;20051;-72
2023/03/14 03:15:11;;;;;;;10.35;5.22;;;;;;;3.53;49.03;100066.00;3170471;28;20062;-71
2023/03/14 03:16:43;;;;;;;11.68;4.85;;;;;;;3.60;49.13;100076.19;3163768;28;20052;-71
2023/03/14 03:18:15;;;;;;;15.23;5.63;;;;;;;3.61;49.21;100082.22;3170643;28;20458;-73
2023/03/14 03:19:47;;;;;;;12.75;5.38;;;;;;;3.60;49.07;100076.19;3168837;28;20076;-71
2023/03/14 03:21:23;;;;;;;10.90;5.20;;;;;;;3.59;49.17;100081.38;3165963;28;20054;-73
2023/03/14 03:22:55;;;;;;;11.13;4.72;;;;;;;3.58;49.22;100077.06;3171055;28;20055;-73
2023/03/14 03:24:27;;;;;;;12.02;5.93;;;;;;;3.55;49.48;100072.84;3170748;28;20171;-71
2023/03/14 03:25:59;;;;;;;19.65;5.82;;;;;;;3.55;49.44;100072.84;3170761;28;20111;-72
2023/03/14 03:27:32;;;;;;;9.45;5.60;;;;;;;3.56;49.47;100074.53;3170896;28;20047;-72
2023/03/14 03:29:05;;;;;;;11.90;5.93;;;;;;;3.56;49.53;100068.53;3171178;28;20551;-73
2023/03/14 03:30:40;;;;;;;15.57;5.78;;;;;;;3.44;49.47;100050.66;3170436;28;20340;-70
2023/03/14 03:32:12;;;;;;;12.00;5.85;;;;;;;3.49;49.52;100054.00;3170792;28;20052;-72
2023/03/14 03:33:44;;;;;;;12.35;5.90;;;;;;;3.49;49.44;100059.16;3170420;28;20048;-71
2023/03/14 03:35:15;;;;;;;14.50;5.68;;;;;;;3.56;49.50;100065.97;3170631;28;20074;-71
2023/03/14 03:36:47;;;;;;;11.57;6.03;;;;;;;3.49;49.49;100046.28;3169152;28;20054;-73
2023/03/14 03:38:19;;;;;;;13.57;5.22;;;;;;;3.55;49.72;100064.25;3170668;28;20039;-71
2023/03/14 03:39:52;;;;;;;12.93;6.60;;;;;;;3.07;49.62;99991.88;3170717;28;20056;-71
2023/03/14 03:41:24;;;;;;;13.98;6.40;;;;;;;3.53;49.63;100060.84;3170535;28;20512;-71
2023/03/14 03:42:56;;;;;;;13.88;6.40;;;;;;;3.53;49.55;100068.56;3170999;28;20055;-71
2023/03/14 03:44:29;;;;;;;13.07;6.28;;;;;;;3.52;49.71;100064.28;3170391;28;20047;-72
2023/03/14 03:46:04;;;;;;;12.73;6.22;;;;;;;3.51;49.78;100063.44;3170532;28;20055;-70
2023/03/14 03:47:35;;;;;;;16.17;6.53;;;;;;;3.49;49.91;100062.63;3170045;28;20048;-71
2023/03/14 03:49:07;;;;;;;12.80;6.65;;;;;;;3.23;49.85;100026.88;3170594;28;20039;-70
2023/03/14 03:50:45;;;;;;;11.60;5.85;;;;;;;2.78;49.99;99949.34;3169548;28;20043;-70
2023/03/14 03:52:17;;;;;;;18.00;7.00;;;;;;;3.50;50.02;100063.47;3160930;28;20100;-71
2023/03/14 03:53:49;;;;;;;14.32;5.95;;;;;;;3.50;50.04;100063.47;3170416;28;20389;-71
2023/03/14 03:55:21;;;;;;;19.27;6.65;;;;;;;3.49;49.96;100070.34;3170553;28;20081;-71
2023/03/14 03:56:52;;;;;;;14.55;6.13;;;;;;;3.40;50.02;100047.25;3170311;28;20444;-71
2023/03/14 03:58:24;;;;;;;12.43;5.85;;;;;;;3.47;50.10;100066.94;3170171;28;20047;-72
2023/03/14 03:59:57;;;;;;;12.02;6.15;;;;;;;3.32;50.05;100037.06;3170047;28;20051;-71
2023/03/14 04:01:29;;;;;;;13.43;6.57;;;;;;;3.46;50.10;100054.06;3159616;28;20044;-71
2023/03/14 04:03:01;;;;;;;13.68;7.00;;;;;;;3.45;50.39;100060.94;3169412;28;20116;-71
2023/03/14 04:04:33;;;;;;;14.05;6.22;;;;;;;3.44;50.20;100055.81;3169934;28;20062;-70
2023/03/14 04:06:07;;;;;;;14.35;6.32;;;;;;;3.33;50.44;100030.19;3165806;28;20055;-71
2023/03/14 04:07:38;;;;;;;19.27;6.30;;;;;;;3.34;50.22;100032.75;3166807;28;20099;-70
2023/03/14 04:09:10;;;;;;;15.15;6.35;;;;;;;3.46;50.20;100047.22;3166569;28;20043;-70
2023/03/14 04:10:42;;;;;;;14.93;6.55;;;;;;;3.46;50.30;100046.34;3165884;28;20044;-71
2023/03/14 04:12:13;;;;;;;13.70;6.82;;;;;;;3.44;50.44;100045.53;3169571;28;20055;-71
2023/03/14 04:13:45;;;;;;;12.30;6.40;;;;;;;3.42;50.32;100040.38;3169965;28;20126;-70
2023/03/14 04:15:18;;;;;;;16.80;6.80;;;;;;;3.39;50.33;100046.41;3169952;28;20123;-71
2023/03/14 04:16:50;;;;;;;;;;;;;;;3.33;50.25;100046.47;3170224;28;20427;-72
2023/03/14 04:18:24;;;;;;;15.75;6.63;;;;;;;3.21;50.42;100028.63;3170125;28;19930;-72
2023/03/14 04:19:56;;;;;;;16.48;6.80;;;;;;;3.30;50.35;100046.53;3169592;28;20143;-72
2023/03/14 04:21:28;;;;;;;15.23;6.93;;;;;;;3.31;50.64;100042.22;3165144;28;20058;-72
2023/03/14 04:23:00;;;;;;;14.20;6.72;;;;;;;2.96;50.43;99985.16;3169994;28;20080;-72
2023/03/14 04:24:32;;;;;;;14.55;6.78;;;;;;;3.23;50.61;100024.31;3170036;28;20463;-71
2023/03/14 04:26:04;;;;;;;15.80;6.97;;;;;;;3.30;50.66;100043.94;3170358;28;20059;-71
2023/03/14 04:27:36;;;;;;;18.38;8.10;;;;;;;2.98;50.76;99979.97;3169860;28;20063;-71
2023/03/14 04:29:07;;;;;;;15.70;7.70;;;;;;;3.33;50.84;100035.34;3157673;28;20489;-72
2023/03/14 04:30:40;;;;;;;16.27;7.40;;;;;;;3.33;50.66;100035.34;3168923;28;20043;-71
2023/03/14 04:32:12;;;;;;;15.70;7.07;;;;;;;3.32;50.64;100033.66;3169714;28;20062;-73
2023/03/14 04:33:44;;;;;;;17.35;7.32;;;;;;;3.31;50.82;100037.94;3169539;28;20498;-71
2023/03/14 04:35:16;;;;;;;18.50;7.28;;;;;;;3.31;50.79;100031.91;3170084;28;20108;-71
2023/03/14 04:36:46;;;;;;;15.57;7.20;;;;;;;3.30;50.88;100036.22;3168583;28;20063;-73
2023/03/14 04:38:18;;;;;;;16.70;6.50;;;;;;;3.22;50.91;100022.59;3169894;28;20558;-71
2023/03/14 04:39:50;;;;;;;18.23;6.75;;;;;;;3.27;51.08;100028.53;3169833;28;20043;-72
2023/03/14 04:41:22;;;;;;;16.30;6.75;;;;;;;3.19;51.10;100013.22;3170167;28;20048;-72
2023/03/14 04:42:54;;;;;;;17.40;7.40;;;;;;;3.26;51.16;100026.84;3169991;28;20087;-72
2023/03/14 04:44:26;;;;;;;15.43;7.03;;;;;;;3.17;51.04;100014.94;3169781;28;20127;-71
2023/03/14 04:46:00;;;;;;;14.70;6.63;;;;;;;3.25;51.32;100030.28;3169625;28;20105;-71
2023/03/14 04:47:32;;;;;;;18.63;7.07;;;;;;;3.21;51.20;100023.47;3169924;28;20047;-72
2023/03/14 04:49:03;;;;;;;19.65;8.07;;;;;;;3.21;51.22;100022.63;3170203;28;20047;-71
2023/03/14 04:50:34;;;;;;;20.10;8.43;;;;;;;2.56;51.21;99927.31;3168878;28;20039;-71
2023/03/14 04:52:06;;;;;;;18.05;7.07;;;;;;;3.18;51.20;100033.78;3158836;28;20044;-72
2023/03/14 04:53:38;;;;;;;19.80;8.00;;;;;;;3.09;51.32;100021.03;3169307;28;20488;-72
2023/03/14 04:55:10;;;;;;;16.40;7.82;;;;;;;3.13;51.48;100038.13;3170073;28;20051;-74
2023/03/14 04:56:42;;;;;;;23.35;8.57;;;;;;;3.10;51.26;100036.44;3168873;28;20055;-72
2023/03/14 04:58:14;;;;;;;26.23;7.97;;;;;;;3.09;51.26;100036.47;3169792;28;20056;-71
2023/03/14 04:59:46;;;;;;;21.27;7.65;;;;;;;3.09;51.32;100039.03;3169745;28;20073;-72
2023/03/14 05:01:19;;;;;;;25.75;7.55;;;;;;;3.08;51.41;100039.94;3161446;28;20492;-70
2023/03/14 05:02:51;;;;;;;21.90;7.43;;;;;;;3.03;51.37;100037.38;3166603;28;20047;-71
2023/03/14 05:04:22;;;;;;;17.52;7.40;;;;;;;2.76;51.43;100006.81;3169703;28;20047;-73
2023/03/14 05:05:54;;;;;;;23.60;7.75;;;;;;;3.02;51.43;100048.56;3163755;28;20064;-72
2023/03/14 05:07:27;;;;;;;23.90;7.32;;;;;;;3.02;51.63;100051.13;3163957;28;20424;-72
2023/03/14 05:08:58;;;;;;;22.73;7.70;;;;;;;2.98;51.69;100046.88;3169351;28;20043;-71
2023/03/14 05:10:30;;;;;;;21.63;8.05;;;;;;;2.97;51.52;100058.88;3169238;28;20047;-71
2023/03/14 05:12:02;;;;;;;18.10;6.88;;;;;;;2.83;51.75;100027.28;3168521;28;20051;-71
2023/03/14 05:13:34;;;;;;;15.52;6.93;;;;;;;2.98;51.70;100057.16;3169047;28;20044;-72
2023/03/14 05:15:06;;;;;;;27.92;8.05;;;;;;;2.66;51.68;100000.88;3169574;28;20427;-72
2023/03/14 05:16:39;;;;;;;16.98;7.20;;;;;;;2.65;51.82;100006.91;3169400;28;20051;-71
2023/03/14 05:18:10;;;;;;;19.73;7.80;;;;;;;2.97;51.88;100064.03;3169423;28;20442;-71
2023/03/14 05:19:42;;;;;;;17.20;7.20;;;;;;;2.97;51.77;100053.72;3169241;28;20048;-73
2023/03/14 05:21:14;;;;;;;18.83;7.22;;;;;;;3.00;51.95;100055.44;3164600;28;20501;-71
2023/03/14 05:22:46;;;;;;;19.67;7.38;;;;;;;3.02;51.92;100056.28;3169911;28;20082;-72
2023/03/14 05:24:17;;;;;;;20.40;7.28;;;;;;;3.04;52.04;100053.66;3169270;28;20055;-72
2023/03/14 05:25:49;;;;;;;24.55;7.75;;;;;;;2.98;52.00;100049.44;3169279;28;20066;-72
2023/03/14 05:27:20;;;;;;;19.23;7.40;;;;;;;2.55;51.97;99972.72;3169634;28;20465;-72
2023/03/14 05:28:51;;;;;;;27.13;8.52;;;;;;;3.10;51.98;100058.75;3169422;28;20126;-72
2023/03/14 05:30:23;;;;;;;23.35;9.02;;;;;;;3.14;51.90;100066.44;3169105;28;20051;-72
2023/03/14 05:31:57;;;;;;;21.25;7.68;;;;;;;3.17;51.98;100070.69;3169256;28;20063;-72
2023/03/14 05:33:28;;;;;;;22.05;7.68;;;;;;;3.19;52.10;100069.81;3169634;28;20115;-72
2023/03/14 05:35:00;;;;;;;22.50;7.97;;;;;;;3.22;52.08;100065.50;3169338;28;20048;-72
2023/03/14 05:36:32;;;;;;;24.15;8.43;;;;;;;3.24;52.21;100064.59;3167947;28;20054;-72
2023/03/14 05:38:04;;;;;;;20.10;7.68;;;;;;;3.28;52.17;100061.13;3169315;28;20052;-72
2023/03/14 05:39:36;;;;;;;19.13;8.75;;;;;;;3.32;52.13;100060.22;3169182;28;20441;-73
2023/03/14 05:41:08;;;;;;;26.02;8.68;;;;;;;3.27;52.16;100046.56;3169277;28;20055;-73
2023/03/14 05:42:40;;;;;;;22.42;9.18;;;;;;;3.41;52.04;100059.28;3169544;28;20504;-72
2023/03/14 05:44:12;;;;;;;22.23;8.90;;;;;;;3.45;51.93;100052.34;3169223;28;20050;-73
2023/03/14 05:45:44;;;;;;;17.55;8.20;;;;;;;3.52;52.07;100066.84;3169266;28;20108;-73
2023/03/14 05:47:17;;;;;;;19.38;8.35;;;;;;;3.40;52.19;100032.69;3169196;28;20066;-72
2023/03/14 05:48:48;;;;;;;22.88;8.88;;;;;;;3.59;52.00;100066.78;3169261;28;20117;-73
2023/03/14 05:50:20;;;;;;;20.92;8.32;;;;;;;3.63;52.29;100060.69;3169507;28;20512;-73
2023/03/14 05:51:52;;;;;;;26.17;8.40;;;;;;;3.68;52.20;100067.53;3158174;28;20063;-73
2023/03/14 05:53:24;;;;;;;17.55;8.13;;;;;;;3.72;52.03;100054.56;3168600;28;20044;-72
2023/03/14 05:54:55;;;;;;;20.63;9.18;;;;;;;3.75;52.15;100059.69;3169301;28;20044;-73
2023/03/14 05:56:27;;;;;;;22.83;9.43;;;;;;;3.77;52.30;100057.09;3169540;28;20056;-73
2023/03/14 05:57:59;;;;;;;30.67;10.40;;;;;;;3.64;52.16;100030.66;3169268;28;20124;-73
2023/03/14 05:59:31;;;;;;;38.38;10.60;;;;;;;3.85;52.01;100056.13;3169205;28;20081;-74
2023/03/14 06:01:04;;;;;;;21.27;11.18;;;;;;;3.91;52.05;100059.50;3163205;28;20101;-73
2023/03/14 06:02:38;;;;;;;29.42;10.57;;;;;;;3.88;51.92;100050.94;3165743;28;20424;-73
2023/03/14 06:04:09;;;;;;;19.73;9.93;;;;;;;3.78;52.06;100018.44;3168765;28;20096;-72
2023/03/14 06:05:40;;;;;;;21.42;9.70;;;;;;;3.95;51.88;100035.38;3167892;28;20597;-72
2023/03/14 06:07:12;;;;;;;26.15;9.65;;;;;;;4.04;51.95;100041.25;3163555;28;20048;-72
2023/03/14 06:08:44;;;;;;;20.80;8.70;;;;;;;4.17;52.03;100059.09;3169179;28;20436;-72
2023/03/14 06:10:16;;;;;;;22.55;9.88;;;;;;;4.23;52.06;100054.75;3169253;28;20495;-72
2023/03/14 06:11:48;;;;;;;25.98;9.73;;;;;;;4.23;51.84;100040.97;3168901;28;21052;-73
2023/03/14 06:13:20;;;;;;;21.33;10.27;;;;;;;4.39;51.92;100054.50;3169316;28;20104;-73
2023/03/14 06:14:52;;;;;;;26.00;9.32;;;;;;;4.47;51.63;100050.06;3169055;28;20101;-72
2023/03/14 06:16:24;;;;;;;26.85;9.27;;;;;;;4.54;51.81;100046.50;3169442;28;20460;-72
2023/03/14 06:17:57;;;;;;;26.13;9.95;;;;;;;4.58;51.87;100053.31;3168570;28;20585;-74
2023/03/14 06:19:29;;;;;;;19.75;9.73;;;;;;;4.50;51.66;100025.06;3169506;28;20047;-73
2023/03/14 06:21:01;;;;;;;25.13;10.85;;;;;;;4.67;51.77;100041.97;3156595;28;20577;-74
2023/03/14 06:22:33;;;;;;;27.08;10.18;;;;;;;4.57;51.56;100020.66;3168760;28;20124;-73
2023/03/14 06:24:05;;;;;;;25.83;10.10;;;;;;;4.79;51.68;100039.19;3171500;28;20536;-73
2023/03/14 06:25:37;;;;;;;23.42;9.90;;;;;;;4.91;51.56;100040.69;3171574;28;20047;-73
2023/03/14 06:27:09;;;;;;;28.55;11.30;;;;;;;4.96;51.54;100028.56;3170423;28;20047;-71
2023/03/14 06:28:41;;;;;;;22.40;10.00;;;;;;;5.08;51.54;100010.25;3171405;28;20474;-71
2023/03/14 06:30:14;;;;;;;22.45;10.00;;;;;;;5.24;51.57;99998.75;3171063;27;20048;-71
2023/03/14 06:31:46;;;;;;;33.40;10.73;;;;;;;5.74;51.36;100039.06;3171120;28;20878;-72
2023/03/14 06:33:19;;;;;;;24.48;12.02;;;;;;;6.10;51.16;100029.69;3170983;28;20176;-72
2023/03/14 06:34:51;;;;;;;27.98;13.43;;;;;;;6.50;51.10;100020.94;3171178;28;20047;-72
2023/03/14 06:36:22;;;;;;;33.15;15.25;;;;;;;6.75;50.11;99990.97;3164353;28;20078;-71
2023/03/14 06:37:54;;;;;;;31.77;13.45;;;;;;;7.20;49.41;99998.38;3170885;28;20121;-72
2023/03/14 06:39:26;;;;;;;28.33;13.85;;;;;;;7.83;48.71;100034.56;3170685;28;20048;-71
2023/03/14 06:41:04;;;;;;;31.92;13.00;;;;;;;8.33;47.51;100032.16;3170973;28;20051;-73
2023/03/14 06:42:36;;;;;;;31.83;12.48;;;;;;;8.82;47.17;100034.00;3170880;28;20142;-72
2023/03/14 06:44:08;;;;;;;27.35;13.32;;;;;;;9.21;45.98;100027.47;3170686;28;20446;-73
2023/03/14 06:45:40;;;;;;;33.53;14.77;;;;;;;9.73;45.57;100035.91;3170975;28;20054;-73
2023/03/14 06:47:12;;;;;;;30.08;13.38;;;;;;;10.16;44.46;100042.91;3171241;28;20051;-72
2023/03/14 06:48:45;;;;;;;26.25;13.45;;;;;;;10.54;43.52;100034.53;3171366;28;20047;-73
2023/03/14 06:50:17;;;;;;;;;;;;;;;10.92;42.33;100040.72;3169302;28;20059;-70
2023/03/14 06:51:49;;;;;;;28.98;11.63;;;;;;;11.20;41.92;100035.16;3168965;28;19923;-69
2023/03/14 06:53:21;;;;;;;27.70;12.18;;;;;;;11.68;41.41;100019.97;3168485;28;20086;-70
2023/03/14 06:54:53;;;;;;;22.92;11.98;;;;;;;12.17;40.53;100033.34;3169020;28;20090;-71
2023/03/14 06:56:25;;;;;;;24.98;11.75;;;;;;;12.43;39.53;100032.09;3170222;28;20048;-73
2023/03/14 06:57:57;;;;;;;27.65;11.77;;;;;;;12.62;38.63;100014.56;3171184;28;20078;-74
2023/03/14 06:59:28;;;;;;;26.70;11.70;;;;;;;12.98;38.14;100013.63;3170994;28;20132;-74
2023/03/14 07:01:00;;;;;;;22.48;11.80;;;;;;;13.29;37.51;100004.22;3165352;28;20091;-70
2023/03/14 07:02:32;;;;;;;22.95;12.73;;;;;;;13.65;37.18;100011.84;3165441;28;20044;-72
2023/03/14 07:04:06;;;;;;;22.70;10.43;;;;;;;13.83;36.45;100016.09;3170783;28;20047;-84
2023/03/14 07:05:40;;;;;;;19.60;9.98;;;;;;;13.76;35.72;100012.13;3170332;28;20066;-71
2023/03/14 07:07:12;;;;;;;24.10;10.60;;;;;;;13.32;35.65;99954.38;3171130;28;20449;-75
2023/03/14 07:08:44;;;;;;;20.35;8.38;;;;;;;13.46;35.36;99988.47;3161459;28;20424;-75
2023/03/14 07:10:16;;;;;;;18.15;7.78;;;;;;;13.48;35.79;99991.00;3170737;28;20056;-70
2023/03/14 07:11:48;;;;;;;15.98;7.50;;;;;;;13.24;35.03;99978.28;3170792;28;20043;-73